createdAt,value
2022-09-25T00:00:28.165Z,0.30
2022-09-25T00:05:19.957Z,0.30
2022-09-25T00:10:11.786Z,0.30
2022-09-25T00:15:04.273Z,0.20
2022-09-25T00:19:55.998Z,0.30
2022-09-25T00:24:48.271Z,0.30
2022-09-25T00:29:40.684Z,0.30
2022-09-25T00:34:32.523Z,0.30
2022-09-25T00:39:24.565Z,0.30
2022-09-25T00:44:56.570Z,0.30
2022-09-25T00:49:48.710Z,0.30
2022-09-25T00:54:54.822Z,0.20
2022-09-25T00:59:50.858Z,0.20
2022-09-25T01:04:48.381Z,0.30
2022-09-25T01:09:41.092Z,0.20
2022-09-25T01:14:34.197Z,0.28
2022-09-25T01:19:52.738Z,0.40
2022-09-25T01:29:55.214Z,0.57
2022-09-25T01:35:02.062Z,0.30
2022-09-25T01:40:15.091Z,0.30
2022-09-25T01:45:11.128Z,0.40
2022-09-25T01:50:08.513Z,0.32
2022-09-25T01:55:08.558Z,0.33
2022-09-25T02:00:10.205Z,0.30
2022-09-25T02:05:09.575Z,0.43
2022-09-25T02:10:08.456Z,0.32
2022-09-25T02:15:22.909Z,0.50
2022-09-25T02:20:32.698Z,0.52
2022-09-25T02:25:45.214Z,0.60
2022-09-25T02:30:37.011Z,0.88
2022-09-25T02:35:28.767Z,1.23
2022-09-25T02:40:29.280Z,0.90
2022-09-25T02:45:27.707Z,1.00
2022-09-25T02:50:28.622Z,1.23
2022-09-25T02:55:44.687Z,1.20
2022-09-25T03:00:39.066Z,1.20
2022-09-25T03:05:31.201Z,1.20
2022-09-25T03:10:24.188Z,0.98
2022-09-25T03:15:16.694Z,0.98
2022-09-25T03:20:10.008Z,1.08
2022-09-25T03:25:02.079Z,1.50
2022-09-25T03:29:55.286Z,1.00
2022-09-25T03:34:47.202Z,0.75
2022-09-25T03:39:38.929Z,0.88
2022-09-25T03:44:30.702Z,1.00
2022-09-25T03:49:22.682Z,0.80
2022-09-25T03:54:14.919Z,0.98
2022-09-25T03:59:06.692Z,0.90
2022-09-25T04:03:59.087Z,0.80
2022-09-25T04:08:51.769Z,0.75
2022-09-25T04:13:44.920Z,1.02
2022-09-25T04:18:37.552Z,1.08
2022-09-25T04:23:29.304Z,0.90
2022-09-25T04:28:22.407Z,0.70
2022-09-25T04:33:32.776Z,0.70
2022-09-25T04:38:24.527Z,0.70
2022-09-25T04:43:16.231Z,0.80
2022-09-25T04:48:08.035Z,0.55
2022-09-25T04:53:00.558Z,0.77
2022-09-25T04:57:58.832Z,0.85
2022-09-25T05:02:51.132Z,0.50
2022-09-25T05:07:54.391Z,0.50
2022-09-25T05:12:47.451Z,0.50
2022-09-25T05:17:39.231Z,0.60
2022-09-25T05:22:30.870Z,0.50
2022-09-25T05:27:23.472Z,0.57
2022-09-25T05:32:15.760Z,0.60
2022-09-25T05:37:07.452Z,0.45
2022-09-25T05:41:59.159Z,0.60
2022-09-25T05:46:51.050Z,0.52
2022-09-25T05:51:42.737Z,0.50
2022-09-25T05:56:34.549Z,0.50
2022-09-25T06:01:26.261Z,0.50
2022-09-25T06:06:18.023Z,0.63
2022-09-25T06:11:11.417Z,0.80
2022-09-25T06:16:05.702Z,0.80
2022-09-25T06:21:03.761Z,0.93
2022-09-25T06:25:55.392Z,2.45
2022-09-25T06:30:47.874Z,2.00
2022-09-25T06:35:44.317Z,2.60
2022-09-25T06:40:38.104Z,1.42
2022-09-25T06:45:33.784Z,1.00
2022-09-25T06:50:31.987Z,0.63
2022-09-25T07:00:15.345Z,0.82
2022-09-25T07:05:07.567Z,0.98
2022-09-25T07:10:00.249Z,0.90
2022-09-25T07:14:52.218Z,0.80
2022-09-25T07:19:43.855Z,0.93
2022-09-25T07:24:35.472Z,1.00
2022-09-25T07:29:27.131Z,0.90
2022-09-25T07:34:18.891Z,0.60
2022-09-25T07:39:14.781Z,0.73
2022-09-25T07:44:27.915Z,0.70
2022-09-25T07:49:20.580Z,0.80
2022-09-25T07:54:12.395Z,0.70
2022-09-25T07:59:04.170Z,0.70
2022-09-25T08:03:55.876Z,0.70
2022-09-25T08:08:47.543Z,0.60
2022-09-25T08:13:40.317Z,0.63
2022-09-25T08:18:32.395Z,0.68
2022-09-25T08:23:24.067Z,0.60
2022-09-25T08:28:16.409Z,0.70
2022-09-25T08:33:15.767Z,0.80
2022-09-25T08:38:13.965Z,0.60
2022-09-25T08:43:08.194Z,0.43
2022-09-25T08:48:18.685Z,0.50
2022-09-25T08:53:18.088Z,0.50
2022-09-25T08:58:21.161Z,0.60
2022-09-25T09:03:15.188Z,0.65
2022-09-25T09:08:15.661Z,0.70
2022-09-25T09:13:19.371Z,0.57
2022-09-25T09:18:32.247Z,0.45
2022-09-25T09:23:33.115Z,0.60
2022-09-25T09:28:46.536Z,0.60
2022-09-25T09:33:48.976Z,0.70
2022-09-25T09:39:23.885Z,0.73
2022-09-25T09:45:09.340Z,0.50
2022-09-25T09:50:15.947Z,0.38
2022-09-25T09:55:07.748Z,0.40
2022-09-25T10:00:17.016Z,0.45
2022-09-25T10:05:18.505Z,0.40
2022-09-25T10:10:16.042Z,0.30
2022-09-25T10:15:29.584Z,0.43
2022-09-25T10:20:23.605Z,0.40
2022-09-25T10:25:34.846Z,0.40
2022-09-25T10:30:26.807Z,0.32
2022-09-25T10:35:22.537Z,0.30
2022-09-25T10:40:38.502Z,0.35
2022-09-25T10:45:34.045Z,0.40
2022-09-25T10:50:27.399Z,0.35
2022-09-25T10:55:24.844Z,0.30
2022-09-25T11:00:24.462Z,0.30
2022-09-25T11:05:20.069Z,0.20
2022-09-25T11:10:20.889Z,0.10
2022-09-25T11:15:19.782Z,0.20
2022-09-25T11:20:32.933Z,0.30
2022-09-25T11:25:32.526Z,0.35
2022-09-25T11:30:25.398Z,0.38
2022-09-25T11:35:48.306Z,0.20
2022-09-25T11:41:10.952Z,0.63
2022-09-25T11:46:13.608Z,0.30
2022-09-25T11:51:27.297Z,0.20
2022-09-25T11:56:25.898Z,0.30
2022-09-25T12:01:23.760Z,0.40
2022-09-25T12:06:49.121Z,0.30
2022-09-25T12:11:54.996Z,0.20
2022-09-25T12:17:10.997Z,0.57
2022-09-25T12:22:15.752Z,0.20
2022-09-25T12:27:35.563Z,0.30
2022-09-25T12:33:01.850Z,0.30
2022-09-25T12:38:29.277Z,0.22
2022-09-25T12:43:28.883Z,0.25
2022-09-25T12:48:35.544Z,0.22
2022-09-25T12:53:31.779Z,0.32
2022-09-25T12:58:43.411Z,0.30
2022-09-25T13:04:05.700Z,0.30
2022-09-25T13:09:25.578Z,0.30
2022-09-25T13:14:42.676Z,0.30
2022-09-25T13:19:35.227Z,0.30
2022-09-25T13:24:27.119Z,0.40
2022-09-25T13:29:53.349Z,0.38
2022-09-25T13:34:45.977Z,0.30
2022-09-25T13:40:05.780Z,0.20
2022-09-25T13:45:11.825Z,0.40
2022-09-25T13:50:13.012Z,0.70
2022-09-25T13:55:13.812Z,0.30
2022-09-25T14:00:15.398Z,0.30
2022-09-25T14:05:07.699Z,0.60
2022-09-25T14:10:01.422Z,0.30
2022-09-25T14:15:07.643Z,0.20
2022-09-25T14:20:03.789Z,0.40
2022-09-25T14:24:55.578Z,0.30
2022-09-25T14:29:47.658Z,0.22
2022-09-25T14:34:57.861Z,0.22
2022-09-25T14:40:04.176Z,0.40
2022-09-25T14:45:06.307Z,0.40
2022-09-25T14:49:58.521Z,0.22
2022-09-25T14:54:55.684Z,0.20
2022-09-25T14:59:52.155Z,0.25
2022-09-25T15:04:44.104Z,0.38
2022-09-25T15:09:39.340Z,0.30
2022-09-25T15:14:31.072Z,0.30
2022-09-25T15:19:28.149Z,0.30
2022-09-25T15:24:46.123Z,0.20
2022-09-25T15:29:42.057Z,0.40
2022-09-25T15:34:34.080Z,0.30
2022-09-25T15:39:29.431Z,0.40
2022-09-25T15:44:26.105Z,0.40
2022-09-25T15:49:25.293Z,0.40
2022-09-25T15:54:34.300Z,0.85
2022-09-25T15:59:33.553Z,0.40
2022-09-25T16:04:44.313Z,0.50
2022-09-25T16:09:36.057Z,0.40
2022-09-25T16:14:32.183Z,0.40
2022-09-25T16:19:26.879Z,0.40
2022-09-25T16:24:24.177Z,0.50
2022-09-25T16:29:20.331Z,0.30
2022-09-25T16:34:22.152Z,0.68
2022-09-25T16:39:24.233Z,0.50
2022-09-25T16:44:18.804Z,0.50
2022-09-25T16:49:12.334Z,0.70
2022-09-25T16:54:04.159Z,0.93
2022-09-25T16:58:56.815Z,0.60
2022-09-25T17:03:51.729Z,0.50
2022-09-25T17:08:43.978Z,0.50
2022-09-25T17:13:35.739Z,0.30
2022-09-25T17:18:27.383Z,0.50
2022-09-25T17:23:21.973Z,0.40
2022-09-25T17:28:15.286Z,0.40
2022-09-25T17:33:12.868Z,0.40
2022-09-25T17:38:05.365Z,0.52
2022-09-25T17:42:57.329Z,0.80
2022-09-25T17:47:48.950Z,1.27
2022-09-25T17:52:41.221Z,1.63
2022-09-25T17:57:32.873Z,0.63
2022-09-25T18:02:29.072Z,0.40
2022-09-25T18:07:20.782Z,0.30
2022-09-25T18:12:12.560Z,0.70
2022-09-25T18:17:04.342Z,2.72
2022-09-25T18:22:15.089Z,4.40
2022-09-25T18:27:06.758Z,4.18
2022-09-25T18:31:59.197Z,2.53
2022-09-25T18:36:50.960Z,4.03
2022-09-25T18:41:44.107Z,1.60
2022-09-25T18:46:39.709Z,2.30
2022-09-25T18:51:32.618Z,1.27
2022-09-25T18:56:24.333Z,1.45
2022-09-25T19:01:16.125Z,1.20
2022-09-25T19:06:07.912Z,1.45
2022-09-25T19:11:00.603Z,0.70
2022-09-25T19:15:52.319Z,0.50
2022-09-25T19:20:51.121Z,0.40
2022-09-25T19:25:56.264Z,0.40
2022-09-25T19:31:05.970Z,0.35
2022-09-25T19:36:00.278Z,0.20
2022-09-25T19:40:51.990Z,0.20
2022-09-25T19:45:54.807Z,0.28
2022-09-25T19:50:47.023Z,0.30
2022-09-25T19:55:41.006Z,0.30
2022-09-25T20:00:33.021Z,0.30
2022-09-25T20:05:24.977Z,0.25
2022-09-25T20:10:17.345Z,0.30
2022-09-25T20:15:09.566Z,0.30
2022-09-25T20:20:03.254Z,0.28
2022-09-25T20:24:55.066Z,0.20
2022-09-25T20:29:46.719Z,0.20
2022-09-25T20:34:38.392Z,0.20
2022-09-25T20:39:30.034Z,0.20
2022-09-25T20:44:22.137Z,0.20
2022-09-25T20:49:14.729Z,0.10
2022-09-25T20:54:08.622Z,0.20
2022-09-25T20:59:02.019Z,0.10
2022-09-25T21:03:54.453Z,0.20
2022-09-25T21:08:46.964Z,0.10
2022-09-25T21:13:40.592Z,0.10
2022-09-25T21:18:35.392Z,0.20
2022-09-25T21:23:29.104Z,0.17
2022-09-25T21:28:22.157Z,0.20
2022-09-25T21:33:16.596Z,0.20
2022-09-25T21:38:08.598Z,0.10
2022-09-25T21:43:00.312Z,0.20
2022-09-25T21:47:53.013Z,0.17
2022-09-25T21:52:45.134Z,0.20
2022-09-25T21:57:37.539Z,0.20
2022-09-25T22:02:31.554Z,0.30
2022-09-25T22:07:23.812Z,0.20
2022-09-25T22:12:15.619Z,0.20
2022-09-25T22:17:07.443Z,0.30
2022-09-25T22:21:59.896Z,0.20
2022-09-25T22:26:53.729Z,0.28
2022-09-25T22:31:45.574Z,0.30
2022-09-25T22:36:37.595Z,0.20
2022-09-25T22:41:29.530Z,0.28
2022-09-25T22:46:23.319Z,0.20
2022-09-25T22:51:18.721Z,0.10
2022-09-25T22:56:15.217Z,0.15
2022-09-25T23:01:13.538Z,0.22
2022-09-25T23:06:05.905Z,0.10
2022-09-25T23:11:08.853Z,0.30
2022-09-25T23:16:06.793Z,0.13
2022-09-25T23:20:59.092Z,0.20
2022-09-25T23:25:50.915Z,0.20
2022-09-25T23:30:43.006Z,0.30
2022-09-25T23:35:35.267Z,0.20
2022-09-25T23:40:27.856Z,0.63
2022-09-25T23:45:19.641Z,0.30
2022-09-25T23:50:11.579Z,0.20
2022-09-25T23:55:03.905Z,0.20
2022-09-25T23:59:55.583Z,0.10
